createdAt,value
2019-05-09T00:00:14.251Z,20.70
2019-05-09T00:02:44.191Z,18.32
2019-05-09T00:05:13.776Z,17.35
2019-05-09T00:10:14.227Z,18.37
2019-05-09T00:12:43.720Z,16.87
2019-05-09T00:15:13.622Z,17.55
2019-05-09T00:17:43.939Z,18.98
2019-05-09T00:20:14.347Z,16.90
2019-05-09T00:22:43.553Z,32.83
2019-05-09T00:25:13.102Z,23.52
2019-05-09T00:30:10.197Z,16.12
2019-05-09T00:32:40.281Z,16.42
2019-05-09T00:35:14.140Z,15.90
2019-05-09T00:37:53.889Z,16.65
2019-05-09T00:40:24.363Z,20.48
2019-05-09T00:42:54.443Z,17.50
2019-05-09T00:45:28.958Z,17.05
2019-05-09T00:47:57.438Z,20.45
2019-05-09T00:50:26.025Z,19.15
2019-05-09T00:52:54.570Z,18.37
2019-05-09T00:55:23.886Z,18.40
2019-05-09T01:00:24.271Z,16.42
2019-05-09T01:02:54.197Z,17.80
2019-05-09T01:05:23.917Z,19.07
2019-05-09T01:07:53.818Z,19.02
2019-05-09T01:10:23.709Z,19.32
2019-05-09T01:12:54.270Z,17.27
2019-05-09T01:15:23.984Z,15.95
2019-05-09T01:17:53.601Z,18.17
2019-05-09T01:22:53.907Z,17.10
2019-05-09T01:25:24.035Z,15.55
2019-05-09T01:27:53.887Z,17.67
2019-05-09T01:30:24.181Z,16.05
2019-05-09T01:32:57.411Z,14.45
2019-05-09T01:35:25.925Z,18.00
2019-05-09T01:37:54.461Z,16.95
2019-05-09T01:40:23.914Z,15.48
2019-05-09T01:45:23.665Z,14.33
2019-05-09T01:47:53.753Z,15.88
2019-05-09T01:50:23.349Z,14.43
2019-05-09T01:52:53.374Z,16.50
2019-05-09T01:55:23.792Z,13.20
2019-05-09T01:57:53.848Z,14.10
2019-05-09T02:00:23.890Z,12.53
2019-05-09T02:02:54.035Z,14.63
2019-05-09T02:05:24.089Z,15.28
2019-05-09T02:07:54.243Z,10.63
2019-05-09T02:10:23.319Z,13.30
2019-05-09T02:12:53.836Z,13.08
2019-05-09T02:15:26.772Z,12.80
2019-05-09T02:18:04.288Z,11.70
2019-05-09T02:20:29.765Z,10.63
2019-05-09T02:22:58.311Z,11.73
2019-05-09T02:25:26.814Z,12.85
2019-05-09T02:27:55.381Z,12.82
2019-05-09T02:30:25.593Z,12.53
2019-05-09T02:32:54.804Z,12.68
2019-05-09T02:35:23.428Z,12.78
2019-05-09T02:37:51.916Z,11.93
2019-05-09T02:40:20.569Z,13.00
2019-05-09T02:42:49.253Z,12.57
2019-05-09T02:45:19.421Z,13.67
2019-05-09T02:47:49.035Z,13.15
2019-05-09T02:50:19.536Z,14.40
2019-05-09T02:52:48.826Z,11.83
2019-05-09T02:55:18.478Z,14.85
2019-05-09T02:57:49.095Z,12.90
2019-05-09T03:00:20.572Z,15.10
2019-05-09T03:02:50.713Z,12.63
2019-05-09T03:05:19.772Z,11.73
2019-05-09T03:07:51.464Z,15.48
2019-05-09T03:10:21.101Z,14.98
2019-05-09T03:15:19.584Z,19.85
2019-05-09T03:17:49.490Z,12.53
2019-05-09T03:20:20.282Z,11.78
2019-05-09T03:22:48.895Z,14.23
2019-05-09T03:25:19.176Z,12.33
2019-05-09T03:28:05.471Z,12.23
2019-05-09T03:30:39.638Z,13.55
2019-05-09T03:33:10.409Z,14.65
2019-05-09T03:35:39.062Z,12.88
2019-05-09T03:38:08.375Z,15.18
2019-05-09T03:40:38.007Z,13.70
2019-05-09T03:43:08.225Z,15.20
2019-05-09T03:45:54.784Z,13.03
2019-05-09T03:48:30.921Z,12.82
2019-05-09T03:50:59.366Z,13.43
2019-05-09T03:53:27.906Z,16.60
2019-05-09T03:55:58.152Z,15.60
2019-05-09T03:58:28.129Z,17.73
2019-05-09T04:00:57.981Z,15.30
2019-05-09T04:03:27.682Z,15.23
2019-05-09T04:06:02.143Z,14.78
2019-05-09T04:08:28.235Z,13.90
2019-05-09T04:10:58.698Z,15.25
2019-05-09T04:13:28.775Z,17.90
2019-05-09T04:15:58.226Z,15.32
2019-05-09T04:20:57.351Z,16.10
2019-05-09T04:26:00.327Z,16.57
2019-05-09T04:28:28.805Z,18.17
2019-05-09T04:30:58.104Z,17.45
2019-05-09T04:33:27.988Z,16.32
2019-05-09T04:35:57.913Z,15.98
2019-05-09T04:38:27.918Z,18.62
2019-05-09T04:40:58.329Z,16.48
2019-05-09T04:43:34.851Z,17.73
2019-05-09T04:46:02.073Z,19.15
2019-05-09T04:48:31.100Z,14.80
2019-05-09T04:51:01.822Z,18.15
2019-05-09T04:53:30.760Z,16.27
2019-05-09T04:56:01.077Z,18.25
2019-05-09T04:58:29.537Z,18.05
2019-05-09T05:01:19.568Z,19.15
2019-05-09T05:03:47.994Z,20.00
2019-05-09T05:06:20.321Z,18.17
2019-05-09T05:08:47.893Z,22.02
2019-05-09T05:13:48.011Z,19.65
2019-05-09T05:16:18.301Z,22.32
2019-05-09T05:18:47.784Z,20.60
2019-05-09T05:24:23.201Z,22.55
2019-05-09T05:26:51.747Z,20.17
2019-05-09T05:29:20.194Z,21.48
2019-05-09T05:31:49.013Z,23.30
2019-05-09T05:34:24.941Z,25.50
2019-05-09T05:36:54.617Z,22.32
2019-05-09T05:41:51.212Z,22.70
2019-05-09T05:44:19.885Z,24.47
2019-05-09T05:47:02.616Z,23.77
2019-05-09T05:49:31.384Z,22.32
2019-05-09T05:52:01.666Z,21.87
2019-05-09T05:54:30.437Z,23.52
2019-05-09T05:56:59.607Z,26.02
2019-05-09T05:59:28.796Z,27.07
2019-05-09T06:01:58.435Z,25.60
2019-05-09T06:06:58.892Z,22.45
2019-05-09T06:09:28.073Z,22.52
2019-05-09T06:11:57.716Z,22.27
2019-05-09T06:16:54.466Z,24.90
2019-05-09T06:19:23.453Z,28.38
2019-05-09T06:21:52.486Z,28.90
2019-05-09T06:24:21.232Z,28.45
2019-05-09T06:26:49.919Z,33.00
2019-05-09T06:29:18.365Z,30.97
2019-05-09T06:31:48.500Z,25.62
2019-05-09T06:34:18.755Z,26.30
2019-05-09T06:36:48.972Z,26.87
2019-05-09T06:39:18.697Z,25.20
2019-05-09T06:41:48.335Z,26.85
2019-05-09T06:44:20.722Z,27.10
2019-05-09T06:46:50.866Z,27.40
2019-05-09T06:49:28.302Z,31.48
2019-05-09T06:51:54.129Z,29.05
2019-05-09T06:54:22.601Z,25.92
2019-05-09T06:56:51.042Z,28.50
2019-05-09T06:59:19.497Z,25.02
2019-05-09T07:01:57.487Z,23.38
2019-05-09T07:04:33.185Z,22.77
2019-05-09T07:07:09.141Z,21.42
2019-05-09T07:09:39.221Z,23.18
2019-05-09T07:12:08.054Z,21.12
2019-05-09T07:14:40.931Z,21.87
2019-05-09T07:17:08.198Z,21.33
2019-05-09T07:19:38.300Z,20.40
2019-05-09T07:22:09.218Z,22.22
2019-05-09T07:25:05.995Z,21.23
2019-05-09T07:27:29.293Z,23.25
2019-05-09T07:29:59.385Z,21.80
2019-05-09T07:32:29.475Z,23.52
2019-05-09T07:34:59.573Z,26.02
2019-05-09T07:37:28.034Z,29.72
2019-05-09T07:39:57.752Z,26.33
2019-05-09T07:42:28.471Z,26.12
2019-05-09T07:44:59.090Z,29.95
2019-05-09T07:47:28.255Z,27.73
2019-05-09T07:49:58.566Z,29.48
2019-05-09T07:52:28.424Z,28.30
2019-05-09T07:54:58.026Z,27.13
2019-05-09T07:57:28.509Z,29.23
2019-05-09T07:59:58.490Z,25.52
2019-05-09T08:02:28.248Z,26.97
2019-05-09T08:04:57.964Z,29.30
2019-05-09T08:09:57.940Z,25.80
2019-05-09T08:12:28.400Z,26.20
2019-05-09T08:15:10.365Z,26.80
2019-05-09T08:17:28.588Z,27.40
2019-05-09T08:19:58.519Z,26.33
2019-05-09T08:22:31.861Z,27.27
2019-05-09T08:24:57.715Z,26.65
2019-05-09T08:27:30.059Z,30.10
2019-05-09T08:29:58.310Z,32.67
2019-05-09T08:32:37.777Z,34.58
2019-05-09T08:35:08.242Z,30.10
2019-05-09T08:37:39.107Z,29.60
2019-05-09T08:40:08.051Z,33.90
2019-05-09T08:42:37.843Z,28.55
2019-05-09T08:45:17.342Z,21.35
2019-05-09T08:47:38.033Z,23.73
2019-05-09T08:52:39.982Z,22.65
2019-05-09T08:55:08.604Z,22.05
2019-05-09T08:57:37.612Z,24.83
2019-05-09T09:00:08.422Z,18.95
2019-05-09T09:02:37.661Z,24.47
2019-05-09T09:05:08.682Z,17.77
2019-05-09T09:07:38.028Z,21.73
2019-05-09T09:10:08.403Z,24.15
2019-05-09T09:12:38.354Z,21.73
2019-05-09T09:15:07.955Z,20.68
2019-05-09T09:17:38.527Z,18.37
2019-05-09T09:20:07.862Z,21.75
2019-05-09T09:25:07.623Z,18.25
2019-05-09T09:27:38.050Z,23.25
2019-05-09T09:30:17.742Z,19.48
2019-05-09T09:32:38.779Z,20.23
2019-05-09T09:35:08.107Z,21.30
2019-05-09T09:37:48.169Z,19.95
2019-05-09T09:40:08.778Z,20.72
2019-05-09T09:42:39.665Z,18.95
2019-05-09T09:45:08.042Z,16.27
2019-05-09T09:47:39.340Z,25.17
2019-05-09T09:50:08.737Z,20.88
2019-05-09T09:52:38.483Z,18.30
2019-05-09T10:00:08.952Z,19.67
2019-05-09T10:02:38.199Z,17.55
2019-05-09T10:05:07.866Z,20.72
2019-05-09T10:07:38.430Z,25.23
2019-05-09T10:10:07.951Z,22.65
2019-05-09T10:12:43.587Z,23.22
2019-05-09T10:15:11.782Z,23.38
2019-05-09T10:17:48.057Z,24.10
2019-05-09T10:20:24.530Z,21.33
2019-05-09T10:22:59.898Z,21.62
2019-05-09T10:25:23.414Z,20.02
2019-05-09T10:27:51.869Z,19.92
2019-05-09T10:30:23.468Z,22.70
2019-05-09T10:32:54.764Z,22.52
2019-05-09T10:35:23.656Z,20.55
2019-05-09T10:37:52.220Z,23.25
2019-05-09T10:40:24.014Z,20.23
2019-05-09T10:43:02.710Z,23.32
2019-05-09T10:45:49.050Z,25.37
2019-05-09T10:48:23.796Z,22.75
2019-05-09T10:50:53.867Z,26.12
2019-05-09T10:53:18.233Z,26.07
2019-05-09T10:55:48.090Z,28.10
2019-05-09T10:58:19.651Z,26.40
2019-05-09T11:00:48.353Z,25.52
2019-05-09T11:03:18.023Z,26.42
2019-05-09T11:05:46.751Z,21.75
2019-05-09T11:08:15.344Z,22.27
2019-05-09T11:10:44.266Z,24.65
2019-05-09T11:13:12.715Z,27.75
2019-05-09T11:15:41.335Z,26.20
2019-05-09T11:18:09.842Z,26.37
2019-05-09T11:20:38.382Z,26.93
2019-05-09T11:23:08.133Z,23.95
2019-05-09T11:25:38.082Z,24.90
2019-05-09T11:28:12.642Z,24.00
2019-05-09T11:30:38.622Z,29.67
2019-05-09T11:33:07.941Z,26.23
2019-05-09T11:35:39.561Z,26.95
2019-05-09T11:38:08.527Z,29.30
2019-05-09T11:40:37.815Z,24.60
2019-05-09T11:43:06.509Z,26.87
2019-05-09T11:45:35.028Z,24.35
2019-05-09T11:48:03.550Z,26.42
2019-05-09T11:50:32.004Z,26.55
2019-05-09T11:53:00.675Z,27.55
2019-05-09T11:55:35.760Z,24.70
2019-05-09T11:57:59.356Z,23.57
2019-05-09T12:00:29.482Z,29.63
2019-05-09T12:02:58.366Z,24.15
2019-05-09T12:05:28.751Z,24.20
2019-05-09T12:07:58.109Z,25.80
2019-05-09T12:12:57.590Z,26.25
2019-05-09T12:15:28.753Z,31.15
2019-05-09T12:17:59.170Z,26.90
2019-05-09T12:20:27.734Z,27.15
2019-05-09T12:22:58.445Z,28.60
2019-05-09T12:25:28.284Z,30.95
2019-05-09T12:27:58.394Z,28.20
2019-05-09T12:30:28.428Z,21.37
2019-05-09T12:32:58.884Z,24.80
2019-05-09T12:35:27.339Z,28.55
2019-05-09T12:37:55.846Z,24.72
2019-05-09T12:40:24.380Z,20.70
2019-05-09T12:42:53.701Z,26.30
2019-05-09T12:45:22.378Z,26.65
2019-05-09T12:48:06.259Z,24.63
2019-05-09T12:50:21.416Z,25.30
2019-05-09T12:52:49.884Z,24.77
2019-05-09T12:55:18.564Z,22.10
2019-05-09T12:57:48.949Z,18.57
2019-05-09T13:00:18.670Z,22.80
2019-05-09T13:02:47.408Z,24.35
2019-05-09T13:05:18.198Z,24.65
2019-05-09T13:07:48.048Z,25.57
2019-05-09T13:10:19.505Z,26.00
2019-05-09T13:12:48.731Z,23.80
2019-05-09T13:15:20.719Z,24.10
2019-05-09T13:17:52.388Z,22.52
2019-05-09T13:20:20.874Z,23.40
2019-05-09T13:22:49.495Z,27.30
2019-05-09T13:25:18.760Z,26.40
2019-05-09T13:27:47.965Z,27.75
2019-05-09T13:30:28.465Z,26.60
2019-05-09T13:32:56.923Z,24.15
2019-05-09T13:35:27.653Z,26.45
2019-05-09T13:38:02.544Z,24.85
2019-05-09T13:40:33.285Z,24.20
2019-05-09T13:43:01.267Z,27.22
2019-05-09T13:45:29.734Z,26.10
2019-05-09T13:47:59.715Z,29.85
2019-05-09T13:50:28.371Z,35.03
2019-05-09T13:52:58.291Z,29.13
2019-05-09T13:55:27.622Z,30.77
2019-05-09T13:57:59.226Z,30.05
2019-05-09T14:00:28.464Z,27.73
2019-05-09T14:02:56.631Z,29.27
2019-05-09T14:05:25.096Z,32.08
2019-05-09T14:07:55.600Z,33.58
2019-05-09T14:10:23.905Z,45.98
2019-05-09T14:13:05.372Z,43.10
2019-05-09T14:15:22.574Z,45.33
2019-05-09T14:17:53.940Z,41.77
2019-05-09T14:20:21.201Z,41.85
2019-05-09T14:22:49.699Z,37.28
2019-05-09T14:25:19.542Z,44.05
2019-05-09T14:27:51.727Z,45.15
2019-05-09T14:30:19.782Z,41.83
2019-05-09T14:32:49.855Z,45.85
2019-05-09T14:35:18.730Z,50.38
2019-05-09T14:37:48.766Z,51.60
2019-05-09T14:40:17.760Z,44.98
2019-05-09T14:42:46.293Z,55.17
2019-05-09T14:45:14.993Z,51.92
2019-05-09T14:47:43.446Z,51.90
2019-05-09T14:50:12.032Z,50.45
2019-05-09T14:52:40.532Z,51.37
2019-05-09T14:55:09.199Z,56.02
2019-05-09T14:57:38.505Z,60.55
2019-05-09T15:00:08.854Z,55.30
2019-05-09T15:02:39.049Z,59.10
2019-05-09T15:05:09.566Z,57.45
2019-05-09T15:07:39.111Z,53.40
2019-05-09T15:10:08.646Z,50.03
2019-05-09T15:12:38.975Z,59.50
2019-05-09T15:15:11.118Z,58.00
2019-05-09T15:17:39.861Z,54.55
2019-05-09T15:20:09.307Z,42.73
2019-05-09T15:22:38.694Z,45.58
2019-05-09T15:27:38.565Z,40.05
2019-05-09T15:30:07.826Z,38.88
2019-05-09T15:32:37.714Z,38.92
2019-05-09T15:35:08.926Z,40.05
2019-05-09T15:37:38.536Z,33.88
2019-05-09T15:42:38.852Z,28.83
2019-05-09T15:45:08.421Z,29.20
2019-05-09T15:47:37.987Z,25.60
2019-05-09T15:52:38.302Z,23.38
2019-05-09T15:55:09.443Z,24.43
2019-05-09T15:57:37.906Z,23.55
2019-05-09T16:00:08.496Z,23.02
2019-05-09T16:02:39.136Z,19.82
2019-05-09T16:05:10.601Z,24.10
2019-05-09T16:07:37.608Z,19.60
2019-05-09T16:10:28.313Z,18.17
2019-05-09T16:12:57.070Z,18.15
2019-05-09T16:15:28.506Z,22.17
2019-05-09T16:17:55.855Z,19.02
2019-05-09T16:20:36.936Z,22.22
2019-05-09T16:22:57.105Z,23.85
2019-05-09T16:25:24.798Z,20.82
2019-05-09T16:27:53.287Z,25.95
2019-05-09T16:30:21.809Z,22.05
2019-05-09T16:32:50.268Z,23.50
2019-05-09T16:35:18.763Z,24.32
2019-05-09T16:37:58.369Z,21.17
2019-05-09T16:40:17.531Z,23.42
2019-05-09T16:42:47.612Z,23.40
2019-05-09T16:45:18.175Z,25.45
2019-05-09T16:47:48.586Z,23.15
2019-05-09T16:50:18.131Z,23.50
2019-05-09T16:52:48.761Z,26.45
2019-05-09T16:55:18.459Z,25.57
2019-05-09T16:57:47.613Z,27.20
2019-05-09T17:00:22.034Z,28.23
2019-05-09T17:02:50.845Z,29.32
2019-05-09T17:05:19.305Z,32.48
2019-05-09T17:07:52.456Z,36.15
2019-05-09T17:10:21.222Z,40.43
2019-05-09T17:12:49.671Z,34.20
2019-05-09T17:15:20.113Z,40.55
2019-05-09T17:17:48.603Z,40.78
2019-05-09T17:20:24.477Z,33.98
2019-05-09T17:23:15.090Z,35.03
2019-05-09T17:25:43.011Z,37.98
2019-05-09T17:28:11.473Z,37.95
2019-05-09T17:30:45.310Z,35.65
2019-05-09T17:33:13.822Z,40.08
2019-05-09T17:35:42.705Z,37.08
2019-05-09T17:38:11.229Z,31.70
2019-05-09T17:40:39.751Z,34.40
2019-05-09T17:43:08.474Z,32.30
2019-05-09T17:45:41.756Z,37.33
2019-05-09T17:48:08.541Z,36.98
2019-05-09T17:50:38.365Z,33.42
2019-05-09T17:53:08.571Z,34.05
2019-05-09T17:55:38.123Z,35.43
2019-05-09T18:03:22.817Z,38.65
2019-05-09T18:05:51.549Z,43.55
2019-05-09T18:08:19.994Z,43.23
2019-05-09T18:10:51.296Z,39.15
2019-05-09T18:13:23.979Z,38.20
2019-05-09T18:15:52.909Z,41.48
2019-05-09T18:18:21.759Z,44.15
2019-05-09T18:20:50.368Z,43.28
2019-05-09T18:23:19.000Z,45.75
2019-05-09T18:25:49.403Z,45.48
2019-05-09T18:28:17.971Z,39.58
2019-05-09T18:30:47.915Z,41.67
2019-05-09T18:33:24.244Z,47.05
2019-05-09T18:35:52.696Z,45.38
2019-05-09T18:38:28.073Z,46.40
2019-05-09T18:40:57.976Z,51.75
2019-05-09T18:43:27.468Z,50.45
2019-05-09T18:45:57.874Z,54.48
2019-05-09T18:48:27.880Z,53.90
2019-05-09T18:50:56.646Z,53.13
2019-05-09T18:53:25.224Z,54.25
2019-05-09T18:55:53.665Z,56.02
2019-05-09T18:58:22.264Z,48.50
2019-05-09T19:00:51.332Z,54.77
2019-05-09T19:03:21.301Z,50.50
2019-05-09T19:05:52.973Z,54.23
2019-05-09T19:08:24.121Z,64.67
2019-05-09T19:10:53.779Z,67.22
2019-05-09T19:13:22.281Z,70.20
2019-05-09T19:16:10.854Z,76.30
2019-05-09T19:18:44.350Z,74.40
2019-05-09T19:21:15.950Z,73.35
2019-05-09T19:23:44.505Z,71.20
2019-05-09T19:26:30.987Z,64.87
2019-05-09T19:28:59.514Z,65.40
2019-05-09T19:31:29.568Z,71.80
2019-05-09T19:33:58.059Z,76.40
2019-05-09T19:36:26.503Z,82.37
2019-05-09T19:38:54.950Z,87.80
2019-05-09T19:41:23.510Z,94.58
2019-05-09T19:43:53.051Z,83.15
2019-05-09T19:48:50.694Z,84.55
2019-05-09T19:51:19.175Z,80.90
2019-05-09T19:53:47.753Z,75.12
2019-05-09T19:56:16.302Z,71.05
2019-05-09T19:58:44.763Z,74.03
2019-05-09T20:01:13.252Z,76.15
2019-05-09T20:03:41.766Z,71.55
2019-05-09T20:06:10.364Z,72.32
2019-05-09T20:08:38.846Z,79.05
2019-05-09T20:11:25.264Z,74.90
2019-05-09T20:13:58.248Z,76.80
2019-05-09T20:16:29.584Z,79.07
2019-05-09T20:18:58.527Z,75.92
2019-05-09T20:21:27.001Z,79.12
2019-05-09T20:23:55.660Z,78.78
2019-05-09T20:26:24.167Z,78.53
2019-05-09T20:28:52.754Z,73.45
2019-05-09T20:31:21.208Z,68.47
2019-05-09T20:33:49.690Z,74.10
2019-05-09T20:36:18.140Z,79.05
2019-05-09T20:38:46.846Z,78.17
2019-05-09T20:41:15.533Z,79.67
2019-05-09T20:43:47.071Z,80.97
2019-05-09T20:46:15.693Z,72.70
2019-05-09T20:48:44.423Z,80.38
2019-05-09T20:51:13.056Z,84.63
2019-05-09T20:53:41.683Z,72.60
2019-05-09T20:56:10.522Z,77.47
2019-05-09T20:58:39.164Z,75.90
2019-05-09T21:01:07.897Z,69.85
2019-05-09T21:03:36.653Z,69.32
2019-05-09T21:06:05.303Z,72.70
2019-05-09T21:08:34.009Z,74.97
2019-05-09T21:11:02.761Z,75.30
2019-05-09T21:13:47.134Z,68.50
2019-05-09T21:16:02.066Z,71.62
2019-05-09T21:18:33.818Z,68.77
2019-05-09T21:21:02.643Z,68.07
2019-05-09T21:23:31.284Z,63.30
2019-05-09T21:25:59.947Z,67.85
2019-05-09T21:28:28.651Z,66.20
2019-05-09T21:30:57.268Z,60.17
2019-05-09T21:33:25.926Z,63.02
2019-05-09T21:35:54.445Z,63.55
2019-05-09T21:38:23.029Z,60.05
2019-05-09T21:40:51.541Z,66.37
2019-05-09T21:43:27.853Z,66.35
2019-05-09T21:45:56.453Z,71.10
2019-05-09T21:48:24.938Z,65.00
2019-05-09T21:50:53.394Z,66.55
2019-05-09T21:53:40.987Z,68.45
2019-05-09T21:56:05.411Z,69.15
2019-05-09T21:58:33.845Z,70.20
2019-05-09T22:01:02.481Z,71.60
2019-05-09T22:03:30.927Z,67.30
2019-05-09T22:05:59.435Z,70.87
2019-05-09T22:08:27.936Z,78.55
2019-05-09T22:10:56.479Z,78.17
2019-05-09T22:13:24.926Z,82.05
2019-05-09T22:15:54.310Z,79.65
2019-05-09T22:18:22.760Z,87.10
2019-05-09T22:20:51.198Z,87.27
2019-05-09T22:23:19.666Z,90.45
2019-05-09T22:25:48.108Z,88.87
2019-05-09T22:28:16.552Z,91.72
2019-05-09T22:30:45.037Z,93.27
2019-05-09T22:33:13.480Z,84.95
2019-05-09T22:35:41.998Z,88.30
2019-05-09T22:38:10.569Z,89.47
2019-05-09T22:40:39.165Z,91.63
2019-05-09T22:43:07.688Z,86.90
2019-05-09T22:45:36.226Z,94.72
2019-05-09T22:48:04.801Z,97.05
2019-05-09T22:50:33.250Z,94.35
2019-05-09T22:53:21.059Z,97.85
2019-05-09T22:55:49.500Z,90.15
2019-05-09T22:58:17.970Z,90.12
2019-05-09T23:00:46.524Z,92.75
2019-05-09T23:03:14.966Z,86.70
2019-05-09T23:05:43.400Z,87.47
2019-05-09T23:08:11.913Z,95.55
2019-05-09T23:10:40.356Z,91.25
2019-05-09T23:13:08.797Z,86.42
2019-05-09T23:15:37.277Z,87.70
2019-05-09T23:18:05.957Z,87.05
2019-05-09T23:20:48.055Z,88.47
2019-05-09T23:23:21.250Z,81.63
2019-05-09T23:25:49.862Z,84.80
2019-05-09T23:28:18.344Z,79.42
2019-05-09T23:30:47.660Z,79.17
2019-05-09T23:33:16.107Z,80.70
2019-05-09T23:35:44.586Z,82.85
2019-05-09T23:38:13.021Z,86.20
2019-05-09T23:40:41.465Z,88.80
2019-05-09T23:43:09.938Z,92.80
2019-05-09T23:45:38.378Z,94.72
2019-05-09T23:48:06.882Z,90.92
2019-05-09T23:50:35.364Z,93.78
2019-05-09T23:53:03.888Z,86.75
2019-05-09T23:55:50.524Z,86.72
2019-05-09T23:58:36.894Z,92.22
